Ida — C4CZ2 — position and weather

sailwx.info

Track history (hours):
 
Tides and Currents Weather Stations Pressure Air Temp Water Temp Dewpoint Dewpoint Depression Visibility Wind Speed Wind Dir Waves Ship Positions

Ida

Last reported at 2018-Feb-20 04:04 UTC. Time now 2018-Feb-25 03:57 UTC.
Position N 55°11' E 012°59'.

Length 82 m; draft 3.1 m.

Type: Cargo ship. MMSI: 210319000.

Date/timePositionNaut miles runAvg speedWind from/ knotsBaromVisibWave heightAir tempDewpointWater temp
2018-Feb-20 04:04N 55°11' E 012°59'3 8.9
2018-Feb-20 03:47N 55°12' E 012°56'2 8.8
2018-Feb-20 03:30N 55°14' E 012°53'5 8.8
2018-Feb-20 02:59N 55°16' E 012°46'4 9.1
2018-Feb-20 02:30N 55°18' E 012°39'4 8.5
2018-Feb-20 02:00N 55°22' E 012°39'5 9.2
2018-Feb-20 01:30N 55°27' E 012°41'5 9.0
2018-Feb-20 01:00N 55°31' E 012°42'4 8.6
2018-Feb-20 00:30N 55°36' E 012°42'4 8.1
2018-Feb-20 00:00N 55°40' E 012°41'4 7.7
2018-Feb-19 23:31N 55°43' E 012°41'4 8.5
2018-Feb-19 23:00N 55°48' E 012°41'4 8.4
2018-Feb-19 22:30N 55°52' E 012°39'4 8.5
2018-Feb-19 22:00N 55°56' E 012°38'4 8.4
2018-Feb-19 21:30N 56°00' E 012°38'4 7.2
2018-Feb-19 21:00N 56°04' E 012°37'3 6.6
2018-Feb-19 20:30N 56°06' E 012°33'4 7.2
2018-Feb-19 20:00N 56°08' E 012°28'4 8.6
2018-Feb-19 19:30N 56°11' E 012°22'5 9.1
2018-Feb-19 18:58N 56°14' E 012°14'  
2018-Feb-15 10:08N 56°12' E 012°28'1 9.4
2018-Feb-15 09:59N 56°11' E 012°29'611.6
2018-Feb-15 09:30N 56°06' E 012°34'611.5
2018-Feb-15 09:00N 56°02' E 012°41'510.3
2018-Feb-15 08:30N 55°57' E 012°43'5 9.8
2018-Feb-15 08:00N 55°52' E 012°44'5 9.5
2018-Feb-15 07:30N 55°47' E 012°43'510.4
2018-Feb-15 07:00N 55°42' E 012°41'510.7
2018-Feb-15 06:30N 55°37' E 012°42'5 9.6
2018-Feb-15 06:00N 55°32' E 012°43'5 9.6
2018-Feb-15 05:30N 55°27' E 012°43'5 9.3
2018-Feb-15 05:00N 55°22' E 012°42'4 8.5
2018-Feb-15 04:30N 55°18' E 012°43'4 8.9
2018-Feb-15 04:00N 55°17' E 012°51'39 8.9
2018-Feb-14 23:39N 55°03' E 013°54'2 9.2
2018-Feb-14 23:28N 55°02' E 013°56'7 9.4
2018-Feb-14 22:46N 54°57' E 014°04'4 9.1
2018-Feb-14 22:21N 54°55' E 014°10'9 9.1
2018-Feb-14 21:24N 54°54' E 014°25'4 9.0
2018-Feb-14 20:59N 54°54' E 014°31'4 9.0
2018-Feb-14 20:30N 54°53' E 014°39'5 9.2
2018-Feb-14 20:00N 54°53' E 014°47'5 9.3
2018-Feb-14 19:30N 54°53' E 014°55'5 9.2
2018-Feb-14 19:00N 54°53' E 015°03'5 9.1
2018-Feb-14 18:30N 54°54' E 015°11'  
2018-Feb-11 13:40N 54°57' E 015°29'2 8.2
2018-Feb-11 13:24N 54°56' E 015°25'6 8.1
2018-Feb-11 12:42N 54°55' E 015°16'2 8.3
2018-Feb-11 12:27N 54°54' E 015°12'4 8.1
2018-Feb-11 12:00N 54°53' E 015°06'4 8.3
2018-Feb-11 11:30N 54°52' E 014°59'4 7.7
2018-Feb-11 11:00N 54°52' E 014°53'4 7.9
2018-Feb-11 10:30N 54°54' E 014°46'4 7.9
2018-Feb-11 10:00N 54°55' E 014°39'4 7.8
2018-Feb-11 09:30N 54°56' E 014°33'4 8.0
2018-Feb-11 09:00N 54°57' E 014°26'5 8.3
2018-Feb-11 08:27N 54°58' E 014°18'5 8.3
2018-Feb-11 07:53N 54°59' E 014°10'10 8.6
2018-Feb-11 06:40N 55°01' E 013°53'2 8.4
2018-Feb-11 06:26N 55°02' E 013°49'25 9.0
2018-Feb-11 03:41N 55°11' E 013°08'2 9.1
2018-Feb-11 03:30N 55°11' E 013°06'5 9.1
2018-Feb-11 03:00N 55°13' E 012°58'4 8.9
2018-Feb-11 02:30N 55°15' E 012°51'4 8.9
2018-Feb-11 02:00N 55°17' E 012°44'4 8.2
2018-Feb-11 01:30N 55°19' E 012°38'4 8.5
2018-Feb-11 01:00N 55°23' E 012°39'4 8.8
2018-Feb-11 00:30N 55°27' E 012°41'5 9.0
2018-Feb-11 00:00N 55°32' E 012°42'4 8.9
2018-Feb-10 23:30N 55°36' E 012°42'4 8.6
2018-Feb-10 23:00N 55°40' E 012°40'1 1.9
2018-Feb-10 22:30N 55°41' E 012°39'0 0.0
2018-Feb-10 22:00N 55°41' E 012°39'0 0.0
2018-Feb-10 21:30N 55°41' E 012°39'0 0.0
2018-Feb-10 21:00N 55°41' E 012°39'0 0.0
2018-Feb-10 20:30N 55°41' E 012°39'0 0.0
2018-Feb-10 20:00N 55°41' E 012°39'0 0.0
2018-Feb-10 19:30N 55°41' E 012°39'0 0.0
2018-Feb-10 19:00N 55°41' E 012°39'0 0.0
2018-Feb-10 18:30N 55°41' E 012°39'0 0.0
2018-Feb-10 18:00N 55°41' E 012°39'0 0.0
2018-Feb-10 17:30N 55°41' E 012°39'0 0.0
2018-Feb-10 17:00N 55°41' E 012°39'0 0.0
2018-Feb-10 16:30N 55°41' E 012°39'0 0.0
2018-Feb-10 16:00N 55°41' E 012°39'0 0.0
2018-Feb-10 15:30N 55°41' E 012°39'0 0.0
2018-Feb-10 15:00N 55°41' E 012°39'0 0.0
2018-Feb-10 14:30N 55°41' E 012°39'0 0.0
2018-Feb-10 14:00N 55°41' E 012°39'0 0.0
2018-Feb-10 13:30N 55°41' E 012°39'0 0.0
2018-Feb-10 13:00N 55°41' E 012°39'0 0.0
2018-Feb-10 12:30N 55°41' E 012°39'0 0.0
2018-Feb-10 12:00N 55°41' E 012°39'0 0.0
2018-Feb-10 11:30N 55°41' E 012°39'0 0.0
2018-Feb-10 11:00N 55°41' E 012°39'0 0.0
2018-Feb-10 10:30N 55°41' E 012°39'0 0.0
2018-Feb-10 10:00N 55°41' E 012°39'0 0.0
2018-Feb-10 09:30N 55°41' E 012°39'0 0.0
2018-Feb-10 09:00N 55°41' E 012°39'0 0.0
2018-Feb-10 08:30N 55°41' E 012°39'0 0.0
2018-Feb-10 08:00N 55°41' E 012°39'0 0.0
2018-Feb-10 07:30N 55°41' E 012°39'0 0.0
2018-Feb-10 07:00N 55°41' E 012°39'0 0.0
2018-Feb-10 06:30N 55°41' E 012°39'0 0.0
2018-Feb-10 06:00N 55°41' E 012°39'0 0.0
2018-Feb-10 05:30N 55°41' E 012°39'0 0.0
2018-Feb-10 05:00N 55°41' E 012°39'0 0.0
2018-Feb-10 04:30N 55°41' E 012°39'  
Track history (hours):
 
Tides and Currents Weather Stations Pressure Air Temp Water Temp Dewpoint Dewpoint Depression Visibility Wind Speed Wind Dir Waves Ship Positions

Ida

Last reported at 2018-Feb-20 04:04 UTC. Time now 2018-Feb-25 03:57 UTC.
Position N 55°11' E 012°59'.

Length 82 m; draft 3.1 m.

Type: Cargo ship. MMSI: 210319000.

Date/timePositionNaut miles runAvg speedWind from/ knotsBaromVisibWave heightAir tempDewpointWater temp
2018-Feb-20 04:04N 55°11' E 012°59'3 8.9
2018-Feb-20 03:47N 55°12' E 012°56'2 8.8
2018-Feb-20 03:30N 55°14' E 012°53'5 8.8
2018-Feb-20 02:59N 55°16' E 012°46'4 9.1
2018-Feb-20 02:30N 55°18' E 012°39'4 8.5
2018-Feb-20 02:00N 55°22' E 012°39'5 9.2
2018-Feb-20 01:30N 55°27' E 012°41'5 9.0
2018-Feb-20 01:00N 55°31' E 012°42'4 8.6
2018-Feb-20 00:30N 55°36' E 012°42'4 8.1
2018-Feb-20 00:00N 55°40' E 012°41'4 7.7
2018-Feb-19 23:31N 55°43' E 012°41'4 8.5
2018-Feb-19 23:00N 55°48' E 012°41'4 8.4
2018-Feb-19 22:30N 55°52' E 012°39'4 8.5
2018-Feb-19 22:00N 55°56' E 012°38'4 8.4
2018-Feb-19 21:30N 56°00' E 012°38'4 7.2
2018-Feb-19 21:00N 56°04' E 012°37'3 6.6
2018-Feb-19 20:30N 56°06' E 012°33'4 7.2
2018-Feb-19 20:00N 56°08' E 012°28'4 8.6
2018-Feb-19 19:30N 56°11' E 012°22'5 9.1
2018-Feb-19 18:58N 56°14' E 012°14'  
2018-Feb-15 10:08N 56°12' E 012°28'1 9.4
2018-Feb-15 09:59N 56°11' E 012°29'611.6
2018-Feb-15 09:30N 56°06' E 012°34'611.5
2018-Feb-15 09:00N 56°02' E 012°41'510.3
2018-Feb-15 08:30N 55°57' E 012°43'5 9.8
2018-Feb-15 08:00N 55°52' E 012°44'5 9.5
2018-Feb-15 07:30N 55°47' E 012°43'510.4
2018-Feb-15 07:00N 55°42' E 012°41'510.7
2018-Feb-15 06:30N 55°37' E 012°42'5 9.6
2018-Feb-15 06:00N 55°32' E 012°43'5 9.6
2018-Feb-15 05:30N 55°27' E 012°43'5 9.3
2018-Feb-15 05:00N 55°22' E 012°42'4 8.5
2018-Feb-15 04:30N 55°18' E 012°43'4 8.9
2018-Feb-15 04:00N 55°17' E 012°51'39 8.9
2018-Feb-14 23:39N 55°03' E 013°54'2 9.2
2018-Feb-14 23:28N 55°02' E 013°56'7 9.4
2018-Feb-14 22:46N 54°57' E 014°04'4 9.1
2018-Feb-14 22:21N 54°55' E 014°10'9 9.1
2018-Feb-14 21:24N 54°54' E 014°25'4 9.0
2018-Feb-14 20:59N 54°54' E 014°31'4 9.0
2018-Feb-14 20:30N 54°53' E 014°39'5 9.2
2018-Feb-14 20:00N 54°53' E 014°47'5 9.3
2018-Feb-14 19:30N 54°53' E 014°55'5 9.2
2018-Feb-14 19:00N 54°53' E 015°03'5 9.1
2018-Feb-14 18:30N 54°54' E 015°11'  
2018-Feb-11 13:40N 54°57' E 015°29'2 8.2
2018-Feb-11 13:24N 54°56' E 015°25'6 8.1
2018-Feb-11 12:42N 54°55' E 015°16'2 8.3
2018-Feb-11 12:27N 54°54' E 015°12'4 8.1
2018-Feb-11 12:00N 54°53' E 015°06'4 8.3
2018-Feb-11 11:30N 54°52' E 014°59'4 7.7
2018-Feb-11 11:00N 54°52' E 014°53'4 7.9
2018-Feb-11 10:30N 54°54' E 014°46'4 7.9
2018-Feb-11 10:00N 54°55' E 014°39'4 7.8
2018-Feb-11 09:30N 54°56' E 014°33'4 8.0
2018-Feb-11 09:00N 54°57' E 014°26'5 8.3
2018-Feb-11 08:27N 54°58' E 014°18'5 8.3
2018-Feb-11 07:53N 54°59' E 014°10'10 8.6
2018-Feb-11 06:40N 55°01' E 013°53'2 8.4
2018-Feb-11 06:26N 55°02' E 013°49'25 9.0
2018-Feb-11 03:41N 55°11' E 013°08'2 9.1
2018-Feb-11 03:30N 55°11' E 013°06'5 9.1
2018-Feb-11 03:00N 55°13' E 012°58'4 8.9
2018-Feb-11 02:30N 55°15' E 012°51'4 8.9
2018-Feb-11 02:00N 55°17' E 012°44'4 8.2
2018-Feb-11 01:30N 55°19' E 012°38'4 8.5
2018-Feb-11 01:00N 55°23' E 012°39'4 8.8
2018-Feb-11 00:30N 55°27' E 012°41'5 9.0
2018-Feb-11 00:00N 55°32' E 012°42'4 8.9
2018-Feb-10 23:30N 55°36' E 012°42'4 8.6
2018-Feb-10 23:00N 55°40' E 012°40'1 1.9
2018-Feb-10 22:30N 55°41' E 012°39'0 0.0
2018-Feb-10 22:00N 55°41' E 012°39'0 0.0
2018-Feb-10 21:30N 55°41' E 012°39'0 0.0
2018-Feb-10 21:00N 55°41' E 012°39'0 0.0
2018-Feb-10 20:30N 55°41' E 012°39'0 0.0
2018-Feb-10 20:00N 55°41' E 012°39'0 0.0
2018-Feb-10 19:30N 55°41' E 012°39'0 0.0
2018-Feb-10 19:00N 55°41' E 012°39'0 0.0
2018-Feb-10 18:30N 55°41' E 012°39'0 0.0
2018-Feb-10 18:00N 55°41' E 012°39'0 0.0
2018-Feb-10 17:30N 55°41' E 012°39'0 0.0
2018-Feb-10 17:00N 55°41' E 012°39'0 0.0
2018-Feb-10 16:30N 55°41' E 012°39'0 0.0
2018-Feb-10 16:00N 55°41' E 012°39'0 0.0
2018-Feb-10 15:30N 55°41' E 012°39'0 0.0
2018-Feb-10 15:00N 55°41' E 012°39'0 0.0
2018-Feb-10 14:30N 55°41' E 012°39'0 0.0
2018-Feb-10 14:00N 55°41' E 012°39'0 0.0
2018-Feb-10 13:30N 55°41' E 012°39'0 0.0
2018-Feb-10 13:00N 55°41' E 012°39'0 0.0
2018-Feb-10 12:30N 55°41' E 012°39'0 0.0
2018-Feb-10 12:00N 55°41' E 012°39'0 0.0
2018-Feb-10 11:30N 55°41' E 012°39'0 0.0
2018-Feb-10 11:00N 55°41' E 012°39'0 0.0
2018-Feb-10 10:30N 55°41' E 012°39'0 0.0
2018-Feb-10 10:00N 55°41' E 012°39'0 0.0
2018-Feb-10 09:30N 55°41' E 012°39'0 0.0
2018-Feb-10 09:00N 55°41' E 012°39'0 0.0
2018-Feb-10 08:30N 55°41' E 012°39'0 0.0
2018-Feb-10 08:00N 55°41' E 012°39'0 0.0
2018-Feb-10 07:30N 55°41' E 012°39'0 0.0
2018-Feb-10 07:00N 55°41' E 012°39'0 0.0
2018-Feb-10 06:30N 55°41' E 012°39'0 0.0
2018-Feb-10 06:00N 55°41' E 012°39'0 0.0
2018-Feb-10 05:30N 55°41' E 012°39'0 0.0
2018-Feb-10 05:00N 55°41' E 012°39'0 0.0
2018-Feb-10 04:30N 55°41' E 012°39'  

Dump ship's entire track history